createdAt,value
2023-04-15T00:02:46.641Z,79.79
2023-04-15T00:17:51.530Z,79.83
2023-04-15T00:32:53.808Z,79.18
2023-04-15T00:47:56.262Z,78.77
2023-04-15T01:02:58.490Z,78.62
2023-04-15T01:18:01.356Z,78.25
2023-04-15T01:33:03.539Z,78.96
2023-04-15T01:48:05.667Z,80.74
2023-04-15T02:03:07.977Z,82.96
2023-04-15T02:18:10.016Z,84.24
2023-04-15T02:33:12.240Z,85.00
2023-04-15T02:48:14.179Z,84.84
2023-04-15T03:03:16.808Z,84.39
2023-04-15T03:18:18.950Z,83.86
2023-04-15T03:33:21.091Z,84.52
2023-04-15T03:48:23.085Z,85.13
2023-04-15T04:03:25.428Z,86.33
2023-04-15T04:18:27.504Z,87.06
2023-04-15T04:33:29.434Z,87.20
2023-04-15T04:48:31.596Z,86.88
2023-04-15T05:03:33.673Z,86.21
2023-04-15T05:18:35.929Z,85.94
2023-04-15T05:33:37.817Z,86.27
2023-04-15T05:48:39.788Z,87.29
2023-04-15T06:03:42.028Z,87.65
2023-04-15T06:18:44.344Z,88.16
2023-04-15T06:33:46.293Z,88.26
2023-04-15T06:48:48.481Z,88.60
2023-04-15T07:03:50.593Z,88.60
2023-04-15T07:18:52.840Z,88.75
2023-04-15T07:33:54.881Z,89.03
2023-04-15T07:48:56.964Z,89.25
2023-04-15T08:04:00.116Z,89.55
2023-04-15T08:19:02.537Z,89.75
2023-04-15T08:34:05.130Z,89.67
2023-04-15T08:49:12.046Z,89.14
2023-04-15T09:04:14.910Z,89.19
2023-04-15T09:19:24.684Z,89.24
2023-04-15T09:34:36.670Z,89.06
2023-04-15T09:49:38.762Z,89.01
2023-04-15T10:04:42.343Z,88.70
2023-04-15T10:19:49.969Z,88.53
2023-04-15T10:34:54.973Z,88.42
2023-04-15T10:50:02.662Z,88.15
2023-04-15T11:05:04.958Z,88.03
2023-04-15T11:20:07.903Z,88.00
2023-04-15T11:35:09.875Z,87.78
2023-04-15T11:50:18.261Z,86.60
2023-04-15T12:05:20.664Z,86.51
2023-04-15T12:20:26.426Z,86.62
2023-04-15T12:35:28.350Z,86.99
2023-04-15T12:50:30.409Z,87.15
2023-04-15T13:05:32.687Z,86.53
2023-04-15T13:20:34.755Z,85.61
2023-04-15T13:35:36.947Z,85.26
2023-04-15T13:50:41.154Z,85.27
2023-04-15T14:05:43.656Z,86.27
2023-04-15T14:20:45.688Z,86.91
2023-04-15T14:35:47.674Z,86.67
2023-04-15T14:50:49.807Z,85.59
2023-04-15T15:05:51.992Z,85.20
2023-04-15T15:20:54.233Z,85.69
2023-04-15T15:35:56.301Z,84.94
2023-04-15T15:50:58.613Z,84.07
2023-04-15T16:06:01.565Z,83.57
2023-04-15T16:21:03.771Z,83.18
2023-04-15T16:36:06.165Z,82.99
2023-04-15T16:51:08.656Z,82.55
2023-04-15T17:06:11.442Z,83.07
2023-04-15T17:21:14.589Z,83.22
2023-04-15T17:36:17.242Z,84.24
2023-04-15T17:51:19.627Z,86.25
2023-04-15T18:06:22.600Z,86.53
2023-04-15T18:21:34.316Z,86.88
2023-04-15T18:36:36.688Z,87.22
2023-04-15T18:51:39.153Z,87.25
2023-04-15T19:06:42.065Z,88.11
2023-04-15T19:21:47.695Z,88.98
2023-04-15T19:36:51.484Z,88.51
2023-04-15T19:51:54.552Z,88.20
2023-04-15T20:06:57.622Z,87.19
2023-04-15T20:22:00.294Z,86.59
2023-04-15T20:37:03.139Z,86.37
2023-04-15T20:52:07.250Z,86.29
2023-04-15T21:07:11.035Z,86.29
2023-04-15T21:22:13.207Z,86.26
2023-04-15T21:37:15.204Z,86.41
2023-04-15T21:52:17.936Z,86.39
2023-04-15T22:07:19.979Z,86.60
2023-04-15T22:22:21.885Z,87.13
2023-04-15T22:37:30.878Z,87.09
2023-04-15T22:52:33.090Z,87.24
2023-04-15T23:07:35.063Z,86.70
2023-04-15T23:22:38.029Z,87.08
2023-04-15T23:37:40.008Z,87.18
2023-04-15T23:52:42.104Z,87.36
